Impacts TAF Board
For situational awareness. Not to be used for flight planning purposes.
IDs:

KMLC - McAlester Rgnl, OK, US

Issued at 1419 UTC 03 Dec 2021
Updated at 1649 UTC 03 Dec 2021
Potential Impact None Slight Moderate High
Time1553Z 03/17Z 03/18Z 03/19Z 03/20Z 03/21Z 03/22Z 03/23Z 04/00Z 04/01Z 04/02Z 04/03Z 04/04Z 04/05Z>>
Type OBS PRVL PRVL PRVL PRVL PRVL PRVL PRVL PRVL PRVL PRVL PRVL PRVL PRVL
VIS 10 >6 >6 >6 >6 >6 >6 >6 >6 >6 >6 >6 >6 >6
CIG -- 250 250 250 250 250 250 250 250 250 250 250 250 250
Cover FEW BKN BKN BKN BKN BKN BKN BKN BKN BKN BKN BKN BKN BKN
FltCat VFR VFR VFR VFR VFR VFR VFR VFR VFR VFR VFR VFR VFR VFR
WX -- -- -- -- -- -- -- -- -- -- -- -- -- --
WDir 190 200 200 200 200 200 200 200 200 200 200 200 200 200
WSpd 7 10 10 10 10 10 10 10 10 10 10 10 10 10
WGst 16 -- -- -- -- -- -- -- -- -- -- -- -- --
WSHgt -- -- -- -- -- -- -- -- -- -- -- -- -- --
WSDir -- -- -- -- -- -- -- -- -- -- -- -- -- --
WSSpd -- -- -- -- -- -- -- -- -- -- -- -- -- --
R02/20
XWnd -1 -0 -0 -0 -0 -0 -0 -0 -0 -0 -0 -0 -0 -0
XGst -3 -- -- -- -- -- -- -- -- -- -- -- -- --
HWnd -7 -10 -10 -10 -10 -10 -10 -10 -10 -10 -10 -10 -10 -10
HGst -16 -- -- -- -- -- -- -- -- -- -- -- -- --
Raw TAF
KMLC 031419Z 0314/0412 20010KT P6SM SCT080 BKN250
  TEMPO 0314/0315 3SM BR BKN005
  FM040800 VRB03KT P6SM SCT027 BKN250
  TEMPO 0409/0412 3SM BR


Raw METAR
KMLC 031553Z AUTO 19007G16KT 150V230 10SM FEW011 18/15 A2999 RMK AO2 SLP150 T01830150
KMLC 031516Z AUTO 20006KT 10SM FEW007 SCT120 18/16 A2999 RMK AO2 T01780156
KMLC 031453Z AUTO 19008KT 9SM BKN006 17/16 A2998 RMK AO2 SLP148 T01670156 51008
KMLC 031446Z AUTO 19007KT 9SM OVC006 16/15 A2998 RMK AO2 T01610150
KMLC 031425Z AUTO VRB06KT 7SM OVC005 16/15 A2998 RMK AO2 T01610150
KMLC 031414Z AUTO 18007KT 7SM BKN006 16/15 A2998 RMK AO2 T01560150
KMLC 031405Z AUTO 18006KT 7SM SCT006 16/15 A2998 RMK AO2 T01560150
KMLC 031353Z AUTO VRB05KT 7SM CLR 16/14 A2998 RMK AO2 SLP146 T01560144

METAR Board
Radar Display
Forecast Discussion
For situational awareness. Not to be used for flight planning purposes.